sensor_id;sensor_type;location;lat;lon;timestamp;pressure;altitude;pressure_sealevel;temperature;humidity
16331;BME280;8275;48.206;16.340;2023-04-25T00:00:06;98470.13;;;16.23;43.16
16331;BME280;8275;48.206;16.340;2023-04-25T00:02:35;98467.34;;;16.23;43.64
16331;BME280;8275;48.206;16.340;2023-04-25T00:05:05;98463.78;;;16.23;43.16
16331;BME280;8275;48.206;16.340;2023-04-25T00:07:34;98472.09;;;16.23;43.17
16331;BME280;8275;48.206;16.340;2023-04-25T00:10:03;98475.63;;;16.23;43.11
16331;BME280;8275;48.206;16.340;2023-04-25T00:12:32;98470.13;;;16.23;43.23
16331;BME280;8275;48.206;16.340;2023-04-25T00:15:01;98474.03;;;16.22;43.31
16331;BME280;8275;48.206;16.340;2023-04-25T00:17:32;98476.78;;;16.22;43.32
16331;BME280;8275;48.206;16.340;2023-04-25T00:20:02;98470.13;;;16.23;43.26
16331;BME280;8275;48.206;16.340;2023-04-25T00:22:36;98469.63;;;16.21;43.08
16331;BME280;8275;48.206;16.340;2023-04-25T00:25:06;98466.84;;;16.21;43.35
16331;BME280;8275;48.206;16.340;2023-04-25T00:27:35;98469.94;;;16.20;42.93
16331;BME280;8275;48.206;16.340;2023-04-25T00:30:05;98464.22;;;16.16;42.82
16331;BME280;8275;48.206;16.340;2023-04-25T00:32:35;98462.06;;;16.13;43.09
16331;BME280;8275;48.206;16.340;2023-04-25T00:35:04;98457.66;;;16.12;43.27
16331;BME280;8275;48.206;16.340;2023-04-25T00:37:33;98467.94;;;16.11;43.21
16331;BME280;8275;48.206;16.340;2023-04-25T00:40:02;98463.31;;;16.07;43.31
16331;BME280;8275;48.206;16.340;2023-04-25T00:42:33;98457.78;;;16.07;43.24
16331;BME280;8275;48.206;16.340;2023-04-25T00:45:06;98455.34;;;16.05;43.43
16331;BME280;8275;48.206;16.340;2023-04-25T00:47:37;98454.84;;;16.03;43.44
16331;BME280;8275;48.206;16.340;2023-04-25T00:50:08;98452.06;;;16.03;43.44
16331;BME280;8275;48.206;16.340;2023-04-25T00:52:37;98458.44;;;16.04;43.50
16331;BME280;8275;48.206;16.340;2023-04-25T00:55:06;98459.53;;;16.03;43.54
16331;BME280;8275;48.206;16.340;2023-04-25T00:57:35;98464.25;;;16.02;43.34
16331;BME280;8275;48.206;16.340;2023-04-25T01:00:05;98464.88;;;15.99;43.54
16331;BME280;8275;48.206;16.340;2023-04-25T01:02:34;98461.31;;;15.99;43.42
16331;BME280;8275;48.206;16.340;2023-04-25T01:05:05;98454.94;;;15.98;43.68
16331;BME280;8275;48.206;16.340;2023-04-25T01:07:34;98461.63;;;15.97;43.36
16331;BME280;8275;48.206;16.340;2023-04-25T01:10:04;98459.47;;;15.94;43.54
16331;BME280;8275;48.206;16.340;2023-04-25T01:12:34;98467.75;;;15.94;43.43
16331;BME280;8275;48.206;16.340;2023-04-25T01:15:04;98447.59;;;15.94;43.68
16331;BME280;8275;48.206;16.340;2023-04-25T01:17:34;98452.28;;;15.93;43.48
16331;BME280;8275;48.206;16.340;2023-04-25T01:20:07;98451.50;;;15.93;43.54
16331;BME280;8275;48.206;16.340;2023-04-25T01:22:38;98452.63;;;15.92;43.56
16331;BME280;8275;48.206;16.340;2023-04-25T01:25:07;98457.31;;;15.91;43.54
16331;BME280;8275;48.206;16.340;2023-04-25T01:27:37;98450.97;;;15.91;43.19
16331;BME280;8275;48.206;16.340;2023-04-25T01:30:08;98443.00;;;15.89;43.09
16331;BME280;8275;48.206;16.340;2023-04-25T01:32:37;98442.69;;;15.91;43.22
16331;BME280;8275;48.206;16.340;2023-04-25T01:35:08;98454.56;;;15.91;43.33
16331;BME280;8275;48.206;16.340;2023-04-25T01:37:39;98450.69;;;15.92;43.10
16331;BME280;8275;48.206;16.340;2023-04-25T01:40:10;98454.56;;;15.91;42.78
16331;BME280;8275;48.206;16.340;2023-04-25T01:42:41;98451.78;;;15.91;42.80
16331;BME280;8275;48.206;16.340;2023-04-25T01:45:11;98447.69;;;15.89;42.76
16331;BME280;8275;48.206;16.340;2023-04-25T01:47:40;98447.91;;;15.92;42.70
16331;BME280;8275;48.206;16.340;2023-04-25T01:50:11;98445.44;;;15.91;42.70
16331;BME280;8275;48.206;16.340;2023-04-25T01:52:41;98441.56;;;15.92;42.65
16331;BME280;8275;48.206;16.340;2023-04-25T01:55:10;98446.78;;;15.93;42.64
16331;BME280;8275;48.206;16.340;2023-04-25T01:57:38;98447.09;;;15.92;42.43
16331;BME280;8275;48.206;16.340;2023-04-25T02:00:08;98449.84;;;15.92;42.54
16331;BME280;8275;48.206;16.340;2023-04-25T02:02:37;98452.94;;;15.90;42.29
16331;BME280;8275;48.206;16.340;2023-04-25T02:05:07;98453.22;;;15.89;42.36
16331;BME280;8275;48.206;16.340;2023-04-25T02:07:35;98456.31;;;15.87;42.44
16331;BME280;8275;48.206;16.340;2023-04-25T02:10:07;98450.59;;;15.84;42.53
16331;BME280;8275;48.206;16.340;2023-04-25T02:12:36;98453.66;;;15.82;42.60
16331;BME280;8275;48.206;16.340;2023-04-25T02:15:06;98455.09;;;15.80;42.76
16331;BME280;8275;48.206;16.340;2023-04-25T02:17:34;98452.16;;;15.76;42.86
16331;BME280;8275;48.206;16.340;2023-04-25T02:20:04;98444.47;;;15.73;42.83
16331;BME280;8275;48.206;16.340;2023-04-25T02:22:33;98452.56;;;15.70;42.77
16331;BME280;8275;48.206;16.340;2023-04-25T02:25:03;98446.00;;;15.66;42.95
16331;BME280;8275;48.206;16.340;2023-04-25T02:27:33;98448.59;;;15.62;43.32
16331;BME280;8275;48.206;16.340;2023-04-25T02:30:02;98442.84;;;15.59;43.34
16331;BME280;8275;48.206;16.340;2023-04-25T02:32:32;98450.94;;;15.55;43.19
16331;BME280;8275;48.206;16.340;2023-04-25T02:35:01;98449.94;;;15.51;43.42
16331;BME280;8275;48.206;16.340;2023-04-25T02:37:31;98458.00;;;15.48;43.67
16331;BME280;8275;48.206;16.340;2023-04-25T02:40:00;98450.34;;;15.44;43.50
16331;BME280;8275;48.206;16.340;2023-04-25T02:42:30;98452.53;;;15.42;43.64
16331;BME280;8275;48.206;16.340;2023-04-25T02:45:00;98446.53;;;15.40;43.55
16331;BME280;8275;48.206;16.340;2023-04-25T02:47:28;98442.44;;;15.38;43.88
16331;BME280;8275;48.206;16.340;2023-04-25T02:49:57;98437.53;;;15.35;43.83
16331;BME280;8275;48.206;16.340;2023-04-25T02:52:25;98443.66;;;15.32;43.64
16331;BME280;8275;48.206;16.340;2023-04-25T02:54:54;98434.88;;;15.30;43.77
16331;BME280;8275;48.206;16.340;2023-04-25T02:57:22;98439.91;;;15.28;43.64
16331;BME280;8275;48.206;16.340;2023-04-25T02:59:51;98439.38;;;15.26;43.61
16331;BME280;8275;48.206;16.340;2023-04-25T03:02:20;98436.41;;;15.22;43.71
16331;BME280;8275;48.206;16.340;2023-04-25T03:04:49;98439.16;;;15.22;43.66
16331;BME280;8275;48.206;16.340;2023-04-25T03:07:17;98439.47;;;15.21;43.74
16331;BME280;8275;48.206;16.340;2023-04-25T03:09:46;98435.06;;;15.20;43.63
16331;BME280;8275;48.206;16.340;2023-04-25T03:12:15;98432.63;;;15.18;43.79
16331;BME280;8275;48.206;16.340;2023-04-25T03:14:43;98438.47;;;15.17;43.74
16331;BME280;8275;48.206;16.340;2023-04-25T03:17:12;98426.38;;;15.13;43.83
16331;BME280;8275;48.206;16.340;2023-04-25T03:19:42;98440.00;;;15.09;43.45
16331;BME280;8275;48.206;16.340;2023-04-25T03:22:10;98439.47;;;15.07;43.77
16331;BME280;8275;48.206;16.340;2023-04-25T03:24:39;98439.25;;;15.04;43.83
16331;BME280;8275;48.206;16.340;2023-04-25T03:27:07;98445.09;;;15.02;44.00
16331;BME280;8275;48.206;16.340;2023-04-25T03:29:35;98443.75;;;15.00;44.00
16331;BME280;8275;48.206;16.340;2023-04-25T03:32:04;98443.56;;;14.96;44.03
16331;BME280;8275;48.206;16.340;2023-04-25T03:34:33;98445.50;;;14.96;43.99
16331;BME280;8275;48.206;16.340;2023-04-25T03:37:03;98447.75;;;14.94;43.96
16331;BME280;8275;48.206;16.340;2023-04-25T03:39:31;98451.63;;;14.93;44.05
16331;BME280;8275;48.206;16.340;2023-04-25T03:41:59;98453.84;;;14.91;44.05
16331;BME280;8275;48.206;16.340;2023-04-25T03:44:28;98453.84;;;14.91;44.11
16331;BME280;8275;48.206;16.340;2023-04-25T03:46:56;98453.34;;;14.89;44.15
16331;BME280;8275;48.206;16.340;2023-04-25T03:49:25;98452.53;;;14.88;43.96
16331;BME280;8275;48.206;16.340;2023-04-25T03:51:53;98457.22;;;14.88;43.95
16331;BME280;8275;48.206;16.340;2023-04-25T03:54:23;98453.94;;;14.86;43.89
16331;BME280;8275;48.206;16.340;2023-04-25T03:56:51;98456.19;;;14.84;43.87
16331;BME280;8275;48.206;16.340;2023-04-25T03:59:20;98458.13;;;14.83;43.90
16331;BME280;8275;48.206;16.340;2023-04-25T04:01:48;98454.34;;;14.79;43.82
16331;BME280;8275;48.206;16.340;2023-04-25T04:04:17;98458.22;;;14.78;43.86
16331;BME280;8275;48.206;16.340;2023-04-25T04:06:45;98465.97;;;14.76;43.84
16331;BME280;8275;48.206;16.340;2023-04-25T04:09:14;98465.47;;;14.74;43.83
16331;BME280;8275;48.206;16.340;2023-04-25T04:11:43;98467.72;;;14.72;43.86
16331;BME280;8275;48.206;16.340;2023-04-25T04:14:12;98466.38;;;14.69;43.81
16331;BME280;8275;48.206;16.340;2023-04-25T04:16:41;98467.00;;;14.66;43.78
16331;BME280;8275;48.206;16.340;2023-04-25T04:19:09;98476.69;;;14.64;43.83
16331;BME280;8275;48.206;16.340;2023-04-25T04:21:38;98480.03;;;14.61;43.87
16331;BME280;8275;48.206;16.340;2023-04-25T04:24:06;98480.63;;;14.58;43.91
16331;BME280;8275;48.206;16.340;2023-04-25T04:26:35;98476.03;;;14.53;43.91
16331;BME280;8275;48.206;16.340;2023-04-25T04:29:05;98477.44;;;14.51;43.86
16331;BME280;8275;48.206;16.340;2023-04-25T04:31:34;98478.06;;;14.48;43.88
16331;BME280;8275;48.206;16.340;2023-04-25T04:34:03;98485.25;;;14.44;43.89
16331;BME280;8275;48.206;16.340;2023-04-25T04:36:31;98482.31;;;14.40;43.97
16331;BME280;8275;48.206;16.340;2023-04-25T04:39:00;98481.78;;;14.38;44.08
16331;BME280;8275;48.206;16.340;2023-04-25T04:41:30;98486.78;;;14.36;44.02
16331;BME280;8275;48.206;16.340;2023-04-25T04:43:59;98491.78;;;14.34;44.06
16331;BME280;8275;48.206;16.340;2023-04-25T04:46:29;98493.19;;;14.32;43.88
16331;BME280;8275;48.206;16.340;2023-04-25T04:48:58;98499.00;;;14.30;44.00
16331;BME280;8275;48.206;16.340;2023-04-25T04:51:26;98482.72;;;14.29;43.94
16331;BME280;8275;48.206;16.340;2023-04-25T04:53:55;98485.50;;;14.29;43.96
16331;BME280;8275;48.206;16.340;2023-04-25T04:56:25;98477.00;;;14.25;44.00
16331;BME280;8275;48.206;16.340;2023-04-25T04:58:55;98484.16;;;14.26;44.07
16331;BME280;8275;48.206;16.340;2023-04-25T05:01:24;98481.72;;;14.25;44.00
16331;BME280;8275;48.206;16.340;2023-04-25T05:03:54;98478.94;;;14.25;43.97
16331;BME280;8275;48.206;16.340;2023-04-25T05:06:28;98478.13;;;14.24;44.16
16331;BME280;8275;48.206;16.340;2023-04-25T05:08:57;98478.94;;;14.25;44.09
16331;BME280;8275;48.206;16.340;2023-04-25T05:11:26;98481.97;;;14.23;44.13
16331;BME280;8275;48.206;16.340;2023-04-25T05:13:54;98481.72;;;14.25;44.14
16331;BME280;8275;48.206;16.340;2023-04-25T05:16:23;98482.50;;;14.25;44.14
16331;BME280;8275;48.206;16.340;2023-04-25T05:18:51;98490.75;;;14.25;44.21
16331;BME280;8275;48.206;16.340;2023-04-25T05:21:21;98493.84;;;14.24;44.38
16331;BME280;8275;48.206;16.340;2023-04-25T05:23:50;98482.50;;;14.25;44.32
16331;BME280;8275;48.206;16.340;2023-04-25T05:26:19;98491.91;;;14.24;44.33
16331;BME280;8275;48.206;16.340;2023-04-25T05:28:47;98483.31;;;14.26;44.38
16331;BME280;8275;48.206;16.340;2023-04-25T05:31:17;98481.72;;;14.25;43.90
16331;BME280;8275;48.206;16.340;2023-04-25T05:33:46;98484.66;;;14.28;44.22
16331;BME280;8275;48.206;16.340;2023-04-25T05:36:15;98484.63;;;14.33;44.33
16331;BME280;8275;48.206;16.340;2023-04-25T05:38:44;98481.41;;;14.45;44.27
16331;BME280;8275;48.206;16.340;2023-04-25T05:41:13;98481.75;;;14.57;44.07
16331;BME280;8275;48.206;16.340;2023-04-25T05:43:41;98474.03;;;14.72;44.02
16331;BME280;8275;48.206;16.340;2023-04-25T05:46:14;98475.00;;;14.95;43.82
16331;BME280;8275;48.206;16.340;2023-04-25T05:48:45;98471.88;;;15.15;42.98
16331;BME280;8275;48.206;16.340;2023-04-25T05:51:13;98474.84;;;15.32;43.01
16331;BME280;8275;48.206;16.340;2023-04-25T05:53:42;98478.38;;;15.52;42.73
16331;BME280;8275;48.206;16.340;2023-04-25T05:56:11;98480.59;;;15.63;42.15
16331;BME280;8275;48.206;16.340;2023-04-25T05:58:40;98477.94;;;15.72;42.07
16331;BME280;8275;48.206;16.340;2023-04-25T06:01:09;98476.56;;;15.83;42.18
16331;BME280;8275;48.206;16.340;2023-04-25T06:03:37;98479.41;;;15.91;41.37
16331;BME280;8275;48.206;16.340;2023-04-25T06:06:06;98477.88;;;15.99;41.09
16331;BME280;8275;48.206;16.340;2023-04-25T06:08:35;98471.31;;;16.08;41.17
16331;BME280;8275;48.206;16.340;2023-04-25T06:11:03;98458.88;;;16.20;40.87
16331;BME280;8275;48.206;16.340;2023-04-25T06:13:33;98472.25;;;16.26;39.94
16331;BME280;8275;48.206;16.340;2023-04-25T06:16:02;98470.72;;;16.34;40.20
16331;BME280;8275;48.206;16.340;2023-04-25T06:18:30;98465.72;;;16.44;40.38
16331;BME280;8275;48.206;16.340;2023-04-25T06:20:58;98456.09;;;16.55;40.01
16331;BME280;8275;48.206;16.340;2023-04-25T06:23:27;98456.34;;;16.67;39.49
16331;BME280;8275;48.206;16.340;2023-04-25T06:25:55;98456.91;;;16.78;39.46
16331;BME280;8275;48.206;16.340;2023-04-25T06:28:24;98456.50;;;16.93;39.72
16331;BME280;8275;48.206;16.340;2023-04-25T06:30:54;98449.53;;;17.04;39.19
16331;BME280;8275;48.206;16.340;2023-04-25T06:33:22;98456.44;;;17.15;38.66
16331;BME280;8275;48.206;16.340;2023-04-25T06:35:51;98463.16;;;17.23;38.10
16331;BME280;8275;48.206;16.340;2023-04-25T06:38:19;98455.53;;;17.28;37.93
16331;BME280;8275;48.206;16.340;2023-04-25T06:40:48;98452.28;;;17.35;38.19
16331;BME280;8275;48.206;16.340;2023-04-25T06:43:16;98446.97;;;17.47;37.95
16331;BME280;8275;48.206;16.340;2023-04-25T06:45:45;98450.91;;;17.54;37.68
16331;BME280;8275;48.206;16.340;2023-04-25T06:48:16;98436.63;;;17.61;37.43
16331;BME280;8275;48.206;16.340;2023-04-25T06:50:44;98436.94;;;17.68;37.05
16331;BME280;8275;48.206;16.340;2023-04-25T06:53:12;98431.44;;;17.77;36.92
16331;BME280;8275;48.206;16.340;2023-04-25T06:55:41;98439.41;;;17.87;36.90
16331;BME280;8275;48.206;16.340;2023-04-25T06:58:09;98426.38;;;17.96;36.13
16331;BME280;8275;48.206;16.340;2023-04-25T07:00:38;98433.09;;;18.03;35.89
16331;BME280;8275;48.206;16.340;2023-04-25T07:03:06;98431.94;;;18.13;36.25
16331;BME280;8275;48.206;16.340;2023-04-25T07:05:36;98426.25;;;18.27;36.35
16331;BME280;8275;48.206;16.340;2023-04-25T07:08:05;98422.16;;;18.41;35.79
16331;BME280;8275;48.206;16.340;2023-04-25T07:10:34;98418.91;;;18.48;35.26
16331;BME280;8275;48.206;16.340;2023-04-25T07:13:02;98415.97;;;18.53;35.20
16331;BME280;8275;48.206;16.340;2023-04-25T07:15:31;98430.97;;;18.60;35.49
16331;BME280;8275;48.206;16.340;2023-04-25T07:17:59;98430.63;;;18.70;35.39
16331;BME280;8275;48.206;16.340;2023-04-25T07:20:28;98422.63;;;18.77;35.20
16331;BME280;8275;48.206;16.340;2023-04-25T07:22:59;98410.69;;;18.85;34.97
16331;BME280;8275;48.206;16.340;2023-04-25T07:25:27;98418.03;;;18.90;34.21
16331;BME280;8275;48.206;16.340;2023-04-25T07:27:57;98412.25;;;18.95;34.53
16331;BME280;8275;48.206;16.340;2023-04-25T07:30:26;98406.88;;;18.99;34.11
16331;BME280;8275;48.206;16.340;2023-04-25T07:32:54;98413.88;;;19.05;34.33
16331;BME280;8275;48.206;16.340;2023-04-25T07:35:23;98406.19;;;19.10;33.81
16331;BME280;8275;48.206;16.340;2023-04-25T07:37:51;98396.84;;;19.15;34.13
16331;BME280;8275;48.206;16.340;2023-04-25T07:40:21;98410.69;;;19.23;33.74
16331;BME280;8275;48.206;16.340;2023-04-25T07:42:50;98402.66;;;19.30;33.76
16331;BME280;8275;48.206;16.340;2023-04-25T07:45:18;98392.69;;;19.38;33.40
16331;BME280;8275;48.206;16.340;2023-04-25T07:47:47;98412.75;;;19.43;33.17
16331;BME280;8275;48.206;16.340;2023-04-25T07:50:15;98396.38;;;19.50;33.24
16331;BME280;8275;48.206;16.340;2023-04-25T07:52:44;98397.94;;;19.60;33.04
16331;BME280;8275;48.206;16.340;2023-04-25T07:55:12;98397.41;;;19.67;32.70
16331;BME280;8275;48.206;16.340;2023-04-25T07:57:42;98397.09;;;19.68;32.37
16331;BME280;8275;48.206;16.340;2023-04-25T08:00:13;98390.84;;;19.71;32.84
16331;BME280;8275;48.206;16.340;2023-04-25T08:02:42;98393.09;;;19.78;32.13
16331;BME280;8275;48.206;16.340;2023-04-25T08:05:10;98390.47;;;19.81;32.56
16331;BME280;8275;48.206;16.340;2023-04-25T08:07:42;98391.09;;;19.87;32.45
16331;BME280;8275;48.206;16.340;2023-04-25T08:10:10;98392.97;;;19.95;32.75
16331;BME280;8275;48.206;16.340;2023-04-25T08:12:39;98392.56;;;20.05;32.68
16331;BME280;8275;48.206;16.340;2023-04-25T08:15:10;98387.41;;;20.15;32.39
16331;BME280;8275;48.206;16.340;2023-04-25T08:17:40;98375.19;;;20.28;32.07
16331;BME280;8275;48.206;16.340;2023-04-25T08:20:12;98379.34;;;20.43;32.31
16331;BME280;8275;48.206;16.340;2023-04-25T08:22:40;98368.56;;;20.54;31.89
16331;BME280;8275;48.206;16.340;2023-04-25T08:25:09;98370.94;;;20.64;32.13
16331;BME280;8275;48.206;16.340;2023-04-25T08:27:37;98366.09;;;20.73;31.93
16331;BME280;8275;48.206;16.340;2023-04-25T08:30:09;98358.66;;;20.77;31.86
16331;BME280;8275;48.206;16.340;2023-04-25T08:32:38;98364.38;;;20.80;31.32
16331;BME280;8275;48.206;16.340;2023-04-25T08:35:07;98359.38;;;20.86;31.00
16331;BME280;8275;48.206;16.340;2023-04-25T08:37:36;98358.47;;;20.94;30.70
16331;BME280;8275;48.206;16.340;2023-04-25T08:40:07;98354.66;;;20.98;30.26
16331;BME280;8275;48.206;16.340;2023-04-25T08:42:41;98350.22;;;20.97;30.54
16331;BME280;8275;48.206;16.340;2023-04-25T08:45:11;98346.56;;;21.06;30.80
16331;BME280;8275;48.206;16.340;2023-04-25T08:47:40;98354.56;;;21.19;30.15
16331;BME280;8275;48.206;16.340;2023-04-25T08:50:09;98347.84;;;21.32;29.71
16331;BME280;8275;48.206;16.340;2023-04-25T08:52:43;98351.81;;;21.43;29.87
16331;BME280;8275;48.206;16.340;2023-04-25T08:55:12;98350.63;;;21.44;29.61
16331;BME280;8275;48.206;16.340;2023-04-25T08:57:42;98351.31;;;21.41;29.63
16331;BME280;8275;48.206;16.340;2023-04-25T09:00:14;98347.59;;;21.37;31.22
16331;BME280;8275;48.206;16.340;2023-04-25T09:02:43;98352.03;;;21.26;32.04
16331;BME280;8275;48.206;16.340;2023-04-25T09:05:13;98351.56;;;21.12;31.79
16331;BME280;8275;48.206;16.340;2023-04-25T09:07:42;98345.47;;;20.98;31.59
16331;BME280;8275;48.206;16.340;2023-04-25T09:10:11;98350.22;;;20.85;30.97
16331;BME280;8275;48.206;16.340;2023-04-25T09:12:39;98350.56;;;20.72;30.65
16331;BME280;8275;48.206;16.340;2023-04-25T09:15:10;98358.41;;;20.58;30.92
16331;BME280;8275;48.206;16.340;2023-04-25T09:17:55;98358.56;;;20.41;32.77
16331;BME280;8275;48.206;16.340;2023-04-25T09:20:24;98361.66;;;20.27;33.35
16331;BME280;8275;48.206;16.340;2023-04-25T09:23:03;98360.97;;;20.09;33.40
16331;BME280;8275;48.206;16.340;2023-04-25T09:25:35;98370.06;;;19.98;33.30
16331;BME280;8275;48.206;16.340;2023-04-25T09:28:06;98382.41;;;19.88;33.36
16331;BME280;8275;48.206;16.340;2023-04-25T09:30:36;98385.72;;;19.82;33.66
16331;BME280;8275;48.206;16.340;2023-04-25T09:33:08;98399.47;;;19.78;33.77
16331;BME280;8275;48.206;16.340;2023-04-25T09:35:37;98405.84;;;19.79;35.24
16331;BME280;8275;48.206;16.340;2023-04-25T09:38:10;98396.56;;;19.75;36.47
16331;BME280;8275;48.206;16.340;2023-04-25T09:40:41;98396.28;;;19.68;36.55
16331;BME280;8275;48.206;16.340;2023-04-25T09:43:19;98398.78;;;19.60;37.15
16331;BME280;8275;48.206;16.340;2023-04-25T09:45:49;98400.25;;;19.58;37.34
16331;BME280;8275;48.206;16.340;2023-04-25T09:48:21;98404.69;;;19.50;36.33
16331;BME280;8275;48.206;16.340;2023-04-25T09:51:05;98396.97;;;19.35;36.35
16331;BME280;8275;48.206;16.340;2023-04-25T09:53:34;98398.72;;;19.40;36.32
16331;BME280;8275;48.206;16.340;2023-04-25T09:56:05;98387.72;;;19.52;36.22
16331;BME280;8275;48.206;16.340;2023-04-25T09:58:36;98396.22;;;19.76;36.10
16331;BME280;8275;48.206;16.340;2023-04-25T10:01:06;98396.50;;;20.04;36.12
16331;BME280;8275;48.206;16.340;2023-04-25T10:03:38;98396.13;;;20.35;35.72
16331;BME280;8275;48.206;16.340;2023-04-25T10:06:11;98389.59;;;20.63;35.43
16331;BME280;8275;48.206;16.340;2023-04-25T10:08:42;98378.06;;;20.85;34.92
16331;BME280;8275;48.206;16.340;2023-04-25T10:11:11;98381.00;;;21.01;34.16
16331;BME280;8275;48.206;16.340;2023-04-25T10:13:43;98381.16;;;21.17;33.50
16331;BME280;8275;48.206;16.340;2023-04-25T10:16:13;98382.78;;;21.30;33.33
16331;BME280;8275;48.206;16.340;2023-04-25T10:18:44;98385.94;;;21.40;33.00
16331;BME280;8275;48.206;16.340;2023-04-25T10:21:13;98379.88;;;21.50;33.34
16331;BME280;8275;48.206;16.340;2023-04-25T10:23:43;98383.00;;;21.61;33.18
16331;BME280;8275;48.206;16.340;2023-04-25T10:26:12;98376.47;;;21.69;32.65
16331;BME280;8275;48.206;16.340;2023-04-25T10:29:05;98366.28;;;21.73;32.76
16331;BME280;8275;48.206;16.340;2023-04-25T10:31:34;98361.06;;;21.84;32.48
16331;BME280;8275;48.206;16.340;2023-04-25T10:34:13;98358.25;;;21.96;32.39
16331;BME280;8275;48.206;16.340;2023-04-25T10:36:48;98352.97;;;22.06;31.83
16331;BME280;8275;48.206;16.340;2023-04-25T10:39:23;98361.44;;;22.10;31.43
16331;BME280;8275;48.206;16.340;2023-04-25T10:41:57;98344.34;;;22.11;31.26
16331;BME280;8275;48.206;16.340;2023-04-25T10:44:27;98333.19;;;22.11;31.02
16331;BME280;8275;48.206;16.340;2023-04-25T10:46:57;98331.56;;;22.10;31.41
16331;BME280;8275;48.206;16.340;2023-04-25T10:49:32;98329.19;;;22.24;30.84
16331;BME280;8275;48.206;16.340;2023-04-25T10:52:18;98328.81;;;22.54;31.40
16331;BME280;8275;48.206;16.340;2023-04-25T10:54:53;98323.75;;;23.02;30.85
16331;BME280;8275;48.206;16.340;2023-04-25T10:57:36;98317.91;;;23.73;30.66
16331;BME280;8275;48.206;16.340;2023-04-25T11:00:14;98316.66;;;24.48;29.85
16331;BME280;8275;48.206;16.340;2023-04-25T11:02:46;98300.78;;;25.20;28.79
16331;BME280;8275;48.206;16.340;2023-04-25T11:05:24;98282.56;;;25.85;27.86
16331;BME280;8275;48.206;16.340;2023-04-25T11:07:56;98276.56;;;26.50;26.87
16331;BME280;8275;48.206;16.340;2023-04-25T11:10:34;98262.22;;;27.02;26.52
16331;BME280;8275;48.206;16.340;2023-04-25T11:13:03;98266.28;;;27.55;25.32
16331;BME280;8275;48.206;16.340;2023-04-25T11:15:32;98260.13;;;28.11;25.69
16331;BME280;8275;48.206;16.340;2023-04-25T11:18:01;98253.44;;;28.58;23.43
16331;BME280;8275;48.206;16.340;2023-04-25T11:20:31;98256.72;;;28.88;23.34
16331;BME280;8275;48.206;16.340;2023-04-25T11:23:00;98250.69;;;29.14;22.93
16331;BME280;8275;48.206;16.340;2023-04-25T11:25:33;98262.41;;;29.24;23.04
16331;BME280;8275;48.206;16.340;2023-04-25T11:28:05;98285.34;;;28.87;22.71
16331;BME280;8275;48.206;16.340;2023-04-25T11:30:33;98316.50;;;28.22;21.88
16331;BME280;8275;48.206;16.340;2023-04-25T11:33:02;98313.50;;;27.36;22.20
16331;BME280;8275;48.206;16.340;2023-04-25T11:35:32;98360.06;;;26.23;25.79
16331;BME280;8275;48.206;16.340;2023-04-25T11:38:01;98384.56;;;25.02;28.27
16331;BME280;8275;48.206;16.340;2023-04-25T11:40:30;98407.47;;;23.77;30.27
16331;BME280;8275;48.206;16.340;2023-04-25T11:43:00;98402.53;;;22.65;32.08
16331;BME280;8275;48.206;16.340;2023-04-25T11:45:29;98405.78;;;21.63;34.29
16331;BME280;8275;48.206;16.340;2023-04-25T11:47:58;98416.78;;;20.78;35.55
16331;BME280;8275;48.206;16.340;2023-04-25T11:50:28;98420.78;;;20.15;37.08
16331;BME280;8275;48.206;16.340;2023-04-25T11:52:58;98406.56;;;19.67;38.84
16331;BME280;8275;48.206;16.340;2023-04-25T11:55:30;98403.31;;;19.27;39.87
16331;BME280;8275;48.206;16.340;2023-04-25T11:58:00;98402.63;;;19.01;41.10
16331;BME280;8275;48.206;16.340;2023-04-25T12:00:29;98408.88;;;18.89;42.21
16331;BME280;8275;48.206;16.340;2023-04-25T12:02:58;98402.69;;;18.84;43.03
16331;BME280;8275;48.206;16.340;2023-04-25T12:05:29;98395.66;;;18.86;43.45
16331;BME280;8275;48.206;16.340;2023-04-25T12:08:11;98398.75;;;19.31;44.44
16331;BME280;8275;48.206;16.340;2023-04-25T12:10:42;98399.75;;;20.06;45.35
16331;BME280;8275;48.206;16.340;2023-04-25T12:13:22;98389.88;;;20.82;44.83
16331;BME280;8275;48.206;16.340;2023-04-25T12:15:54;98383.81;;;21.37;43.38
16331;BME280;8275;48.206;16.340;2023-04-25T12:18:24;98371.84;;;21.85;42.30
16331;BME280;8275;48.206;16.340;2023-04-25T12:20:54;98366.78;;;22.70;40.28
16331;BME280;8275;48.206;16.340;2023-04-25T12:23:28;98344.72;;;23.59;37.43
16331;BME280;8275;48.206;16.340;2023-04-25T12:25:57;98356.91;;;24.39;35.26
16331;BME280;8275;48.206;16.340;2023-04-25T12:28:26;98342.13;;;25.26;32.81
16331;BME280;8275;48.206;16.340;2023-04-25T12:30:56;98329.50;;;26.18;32.24
16331;BME280;8275;48.206;16.340;2023-04-25T12:33:28;98329.66;;;26.98;27.14
16331;BME280;8275;48.206;16.340;2023-04-25T12:35:58;98328.06;;;27.45;24.20
16331;BME280;8275;48.206;16.340;2023-04-25T12:38:29;98325.88;;;27.75;23.40
16331;BME280;8275;48.206;16.340;2023-04-25T12:40:58;98313.22;;;28.06;24.75
16331;BME280;8275;48.206;16.340;2023-04-25T12:43:27;98327.50;;;28.51;23.01
16331;BME280;8275;48.206;16.340;2023-04-25T12:45:56;98331.19;;;28.70;23.00
16331;BME280;8275;48.206;16.340;2023-04-25T12:48:26;98323.56;;;28.81;22.01
16331;BME280;8275;48.206;16.340;2023-04-25T12:50:54;98323.06;;;28.58;22.77
16331;BME280;8275;48.206;16.340;2023-04-25T12:53:23;98333.44;;;28.29;22.87
16331;BME280;8275;48.206;16.340;2023-04-25T12:55:53;98321.09;;;27.82;23.68
16331;BME280;8275;48.206;16.340;2023-04-25T12:58:26;98314.09;;;27.59;24.18
16331;BME280;8275;48.206;16.340;2023-04-25T13:00:55;98316.84;;;28.06;24.10
16331;BME280;8275;48.206;16.340;2023-04-25T13:03:24;98305.44;;;28.85;24.00
16331;BME280;8275;48.206;16.340;2023-04-25T13:05:52;98291.34;;;29.73;23.82
16331;BME280;8275;48.206;16.340;2023-04-25T13:08:21;98284.13;;;30.73;23.38
16331;BME280;8275;48.206;16.340;2023-04-25T13:10:49;98291.50;;;31.66;22.74
16331;BME280;8275;48.206;16.340;2023-04-25T13:13:19;98281.28;;;32.13;20.97